createdAt,value
2022-08-05T00:00:30.855Z,1005.07
2022-08-05T00:01:36.041Z,1005.11
2022-08-05T00:02:30.824Z,1005.09
2022-08-05T00:03:30.766Z,1005.14
2022-08-05T00:04:30.762Z,1005.16
2022-08-05T00:06:06.540Z,1005.18
2022-08-05T00:06:33.450Z,1005.22
2022-08-05T00:08:00.158Z,1005.25
2022-08-05T00:08:34.455Z,1005.22
2022-08-05T00:09:30.605Z,1005.24
2022-08-05T00:10:30.577Z,1005.26
2022-08-05T00:11:34.987Z,1005.30
2022-08-05T00:12:30.521Z,1005.33
2022-08-05T00:13:38.110Z,1005.35
2022-08-05T00:14:31.547Z,1005.38
2022-08-05T00:15:56.201Z,1005.37
2022-08-05T00:16:35.590Z,1005.37
2022-08-05T00:17:30.641Z,1005.36
2022-08-05T00:18:30.344Z,1005.35
2022-08-05T00:19:33.551Z,1005.31
2022-08-05T00:20:30.290Z,1005.32
2022-08-05T00:21:30.643Z,1005.32
2022-08-05T00:22:30.960Z,1005.31
2022-08-05T00:23:44.313Z,1005.30
2022-08-05T00:24:31.033Z,1005.30
2022-08-05T00:25:45.699Z,1005.25
2022-08-05T00:26:30.116Z,1005.22
2022-08-05T00:27:30.090Z,1005.22
2022-08-05T00:28:30.067Z,1005.20
2022-08-05T00:29:37.569Z,1005.21
2022-08-05T00:30:32.126Z,1005.21
2022-08-05T00:31:53.786Z,1005.18
2022-08-05T00:32:29.948Z,1005.15
2022-08-05T00:34:54.548Z,1005.10
2022-08-05T00:34:54.739Z,1005.11
2022-08-05T00:35:33.343Z,1005.07
2022-08-05T00:37:11.023Z,1005.07
2022-08-05T00:37:35.870Z,1005.03
2022-08-05T00:38:33.987Z,1005.04
2022-08-05T00:39:29.800Z,1005.01
2022-08-05T00:40:29.716Z,1004.98
2022-08-05T00:41:29.686Z,1004.97
2022-08-05T00:42:31.709Z,1004.93
2022-08-05T00:43:29.635Z,1004.93
2022-08-05T00:44:30.562Z,1004.93
2022-08-05T00:45:42.750Z,1004.97
2022-08-05T00:46:42.778Z,1004.90
2022-08-05T00:47:53.033Z,1004.92
2022-08-05T00:48:31.639Z,1004.93
2022-08-05T00:49:32.835Z,1004.88
2022-08-05T00:50:29.430Z,1004.88
2022-08-05T00:51:50.596Z,1004.93
2022-08-05T00:52:29.373Z,1005.00
2022-08-05T00:54:01.431Z,1005.01
2022-08-05T00:54:30.162Z,1005.07
2022-08-05T00:55:42.081Z,1005.12
2022-08-05T00:56:29.260Z,1005.12
2022-08-05T00:57:38.354Z,1005.13
2022-08-05T00:58:29.199Z,1005.16
2022-08-05T00:59:43.354Z,1005.17
2022-08-05T01:00:29.165Z,1005.20
2022-08-05T01:01:48.254Z,1005.22
2022-08-05T01:02:29.090Z,1005.26
2022-08-05T01:03:30.920Z,1005.22
2022-08-05T01:04:29.781Z,1005.24
2022-08-05T01:05:29.000Z,1005.24
2022-08-05T01:06:32.653Z,1005.25
2022-08-05T01:07:31.691Z,1005.22
2022-08-05T01:08:41.838Z,1005.21
2022-08-05T01:09:28.913Z,1005.20
2022-08-05T01:10:28.857Z,1005.18
2022-08-05T01:11:33.454Z,1005.16
2022-08-05T01:12:29.816Z,1005.17
2022-08-05T01:13:59.099Z,1005.23
2022-08-05T01:14:28.804Z,1005.24
2022-08-05T01:15:36.088Z,1005.24
2022-08-05T01:16:28.681Z,1005.22
2022-08-05T01:17:28.658Z,1005.25
2022-08-05T01:18:28.627Z,1005.24
2022-08-05T01:19:46.092Z,1005.18
2022-08-05T01:20:28.568Z,1005.14
2022-08-05T01:21:38.254Z,1005.15
2022-08-05T01:22:28.511Z,1005.10
2022-08-05T01:23:34.984Z,1005.04
2022-08-05T01:24:30.184Z,1005.08
2022-08-05T01:25:41.021Z,1005.12
2022-08-05T01:26:28.397Z,1005.13
2022-08-05T01:27:28.434Z,1005.15
2022-08-05T01:28:28.339Z,1005.24
2022-08-05T01:29:28.307Z,1005.26
2022-08-05T01:30:34.914Z,1005.31
2022-08-05T01:31:28.251Z,1005.28
2022-08-05T01:32:28.224Z,1005.33
2022-08-05T01:33:28.195Z,1005.38
2022-08-05T01:34:28.162Z,1005.41
2022-08-05T01:35:51.086Z,1005.46
2022-08-05T01:36:28.711Z,1005.49
2022-08-05T01:37:28.450Z,1005.53
2022-08-05T01:38:30.202Z,1005.57
2022-08-05T01:39:45.534Z,1005.62
2022-08-05T01:40:29.116Z,1005.63
2022-08-05T01:41:27.959Z,1005.67
2022-08-05T01:42:27.965Z,1005.63
2022-08-05T01:43:27.911Z,1005.65
2022-08-05T01:44:34.449Z,1005.62
2022-08-05T01:45:27.844Z,1005.60
2022-08-05T01:46:41.911Z,1005.58
2022-08-05T01:47:38.855Z,1005.57
2022-08-05T01:48:27.760Z,1005.58
2022-08-05T01:49:27.730Z,1005.58
2022-08-05T01:50:28.758Z,1005.57
2022-08-05T01:51:29.417Z,1005.56
2022-08-05T01:52:27.642Z,1005.55
2022-08-05T01:53:54.519Z,1005.56
2022-08-05T01:54:27.584Z,1005.59
2022-08-05T01:55:27.558Z,1005.63
2022-08-05T01:58:10.465Z,1005.64
2022-08-05T01:58:11.438Z,1005.69
2022-08-05T01:58:29.392Z,1005.77
2022-08-05T01:59:27.436Z,1005.85
2022-08-05T02:00:30.083Z,1005.98
2022-08-05T02:01:27.641Z,1006.04
2022-08-05T02:02:28.363Z,1006.12
2022-08-05T02:03:31.359Z,1006.15
2022-08-05T02:04:27.289Z,1006.21
2022-08-05T02:05:28.665Z,1006.26
2022-08-05T02:06:37.864Z,1006.28
2022-08-05T02:07:27.203Z,1006.28
2022-08-05T02:08:31.107Z,1006.34
2022-08-05T02:09:27.141Z,1006.36
2022-08-05T02:10:28.700Z,1006.42
2022-08-05T02:11:33.121Z,1006.47
2022-08-05T02:12:27.054Z,1006.49
2022-08-05T02:13:27.025Z,1006.49
2022-08-05T02:14:26.997Z,1006.53
2022-08-05T02:15:27.850Z,1006.54
2022-08-05T02:16:27.543Z,1006.57
2022-08-05T02:18:14.524Z,1006.58
2022-08-05T02:18:31.263Z,1006.59
2022-08-05T02:19:27.206Z,1006.59
2022-08-05T02:20:26.831Z,1006.59
2022-08-05T02:21:26.790Z,1006.62
2022-08-05T02:22:27.345Z,1006.67
2022-08-05T02:23:26.731Z,1006.72
2022-08-05T02:24:26.703Z,1006.76
2022-08-05T02:25:26.673Z,1006.84
2022-08-05T02:26:26.759Z,1006.94
2022-08-05T02:27:29.873Z,1007.01
2022-08-05T02:28:29.026Z,1007.02
2022-08-05T02:29:58.770Z,1006.99
2022-08-05T02:30:26.769Z,1007.06
2022-08-05T02:31:26.505Z,1007.15
2022-08-05T02:32:30.994Z,1007.26
2022-08-05T02:33:38.447Z,1007.18
2022-08-05T02:34:26.408Z,1007.14
2022-08-05T02:35:27.776Z,1007.02
2022-08-05T02:36:27.600Z,1006.92
2022-08-05T02:37:26.319Z,1006.72
2022-08-05T02:38:27.046Z,1006.49
2022-08-05T02:39:26.317Z,1006.24
2022-08-05T02:40:26.227Z,1005.94
2022-08-05T02:41:28.785Z,1005.61
2022-08-05T02:42:30.731Z,1005.24
2022-08-05T02:43:26.138Z,1004.95
2022-08-05T02:44:26.104Z,1004.86
2022-08-05T02:45:26.077Z,1004.99
2022-08-05T02:46:27.733Z,1005.09
2022-08-05T02:47:26.021Z,1005.08
2022-08-05T02:48:29.321Z,1004.95
2022-08-05T02:49:26.018Z,1004.82
2022-08-05T02:50:25.929Z,1004.76
2022-08-05T02:51:28.486Z,1004.73
2022-08-05T02:52:30.539Z,1004.83
2022-08-05T02:53:25.837Z,1005.03
2022-08-05T02:54:34.841Z,1005.23
2022-08-05T02:55:54.225Z,1005.43
2022-08-05T02:56:25.748Z,1005.60
2022-08-05T02:58:10.335Z,1005.69
2022-08-05T02:58:26.685Z,1005.77
2022-08-05T02:59:26.901Z,1005.88
2022-08-05T03:00:27.023Z,1005.97
2022-08-05T03:01:25.652Z,1006.10
2022-08-05T03:02:27.395Z,1006.25
2022-08-05T03:03:25.538Z,1006.34
2022-08-05T03:04:25.506Z,1006.43
2022-08-05T03:06:55.568Z,1006.48
2022-08-05T03:06:56.335Z,1006.48
2022-08-05T03:07:59.191Z,1006.53
2022-08-05T03:08:29.652Z,1006.59
2022-08-05T03:09:27.155Z,1006.57
2022-08-05T03:10:25.336Z,1006.55
2022-08-05T03:11:54.694Z,1006.60
2022-08-05T03:12:25.269Z,1006.60
2022-08-05T03:13:27.597Z,1006.61
2022-08-05T03:14:25.208Z,1006.62
2022-08-05T03:15:25.193Z,1006.64
2022-08-05T03:16:25.149Z,1006.64
2022-08-05T03:17:25.513Z,1006.68
2022-08-05T03:18:30.080Z,1006.76
2022-08-05T03:19:33.277Z,1006.79
2022-08-05T03:20:25.202Z,1006.77
2022-08-05T03:21:28.835Z,1006.73
2022-08-05T03:22:32.354Z,1006.71
2022-08-05T03:23:24.940Z,1006.67
2022-08-05T03:24:30.028Z,1006.67
2022-08-05T03:25:34.016Z,1006.59
2022-08-05T03:26:31.682Z,1006.56
2022-08-05T03:27:25.099Z,1006.47
2022-08-05T03:28:24.790Z,1006.44
2022-08-05T03:29:24.759Z,1006.38
2022-08-05T03:30:28.678Z,1006.36
2022-08-05T03:31:56.570Z,1006.33
2022-08-05T03:32:30.955Z,1006.31
2022-08-05T03:33:24.637Z,1006.31
2022-08-05T03:34:24.636Z,1006.26
2022-08-05T03:35:24.580Z,1006.18
2022-08-05T03:36:30.383Z,1006.17
2022-08-05T03:37:24.804Z,1006.17
2022-08-05T03:38:33.299Z,1006.12
2022-08-05T03:39:27.157Z,1006.10
2022-08-05T03:40:31.907Z,1006.14
2022-08-05T03:41:24.397Z,1006.21
2022-08-05T03:42:27.203Z,1006.27
2022-08-05T03:44:08.499Z,1006.23
2022-08-05T03:44:24.322Z,1006.23
2022-08-05T03:45:24.284Z,1006.27
2022-08-05T03:46:26.787Z,1006.23
2022-08-05T03:47:24.592Z,1006.23
2022-08-05T03:48:24.208Z,1006.14
2022-08-05T03:49:30.852Z,1006.14
2022-08-05T03:50:24.128Z,1006.16
2022-08-05T03:52:37.445Z,1006.15
2022-08-05T03:52:37.937Z,1006.10
2022-08-05T03:55:07.010Z,1006.09
2022-08-05T03:55:54.083Z,1006.04
2022-08-05T03:56:05.238Z,1006.02
2022-08-05T03:56:30.619Z,1005.93
2022-08-05T03:57:34.968Z,1005.85
2022-08-05T03:58:27.192Z,1005.77
2022-08-05T03:59:24.690Z,1005.67
2022-08-05T04:00:23.837Z,1005.60
2022-08-05T04:01:23.845Z,1005.56
2022-08-05T04:02:39.008Z,1005.56
2022-08-05T04:03:28.217Z,1005.49
2022-08-05T04:04:23.714Z,1005.47
2022-08-05T04:05:23.690Z,1005.46
2022-08-05T04:06:23.659Z,1005.47
2022-08-05T04:07:24.944Z,1005.45
2022-08-05T04:08:35.327Z,1005.42
2022-08-05T04:09:26.417Z,1005.39
2022-08-05T04:10:23.535Z,1005.25
2022-08-05T04:11:23.509Z,1005.13
2022-08-05T04:12:24.454Z,1004.96
2022-08-05T04:13:23.450Z,1004.87
2022-08-05T04:14:30.054Z,1004.79
2022-08-05T04:15:24.529Z,1004.67
2022-08-05T04:16:24.085Z,1004.62
2022-08-05T04:17:23.524Z,1004.59
2022-08-05T04:18:25.558Z,1004.67
2022-08-05T04:19:23.419Z,1004.80
2022-08-05T04:20:23.420Z,1005.00
2022-08-05T04:22:08.092Z,1005.17
2022-08-05T04:22:23.190Z,1005.30
2022-08-05T04:24:00.217Z,1005.35
2022-08-05T04:24:23.125Z,1005.31
2022-08-05T04:25:24.188Z,1005.17
2022-08-05T04:26:23.062Z,1005.18
2022-08-05T04:27:23.035Z,1005.26
2022-08-05T04:28:30.629Z,1005.45
2022-08-05T04:29:22.977Z,1005.58
2022-08-05T04:30:22.949Z,1005.70
2022-08-05T04:31:22.915Z,1005.78
2022-08-05T04:32:31.114Z,1005.80
2022-08-05T04:34:17.509Z,1005.85
2022-08-05T04:34:33.117Z,1005.89
2022-08-05T04:35:22.799Z,1005.87
2022-08-05T04:36:45.712Z,1005.86
2022-08-05T04:37:23.035Z,1005.92
2022-08-05T04:38:22.712Z,1005.90
2022-08-05T04:39:22.726Z,1005.93
2022-08-05T04:40:22.650Z,1005.91
2022-08-05T04:41:22.618Z,1005.95
2022-08-05T04:42:25.411Z,1006.00
2022-08-05T04:43:22.562Z,1006.03
2022-08-05T04:44:29.435Z,1006.07
2022-08-05T04:45:31.165Z,1006.07
2022-08-05T04:46:27.763Z,1006.05
2022-08-05T04:47:22.744Z,1006.01
2022-08-05T04:48:27.927Z,1005.92
2022-08-05T04:49:24.564Z,1005.85
2022-08-05T04:50:37.631Z,1005.69
2022-08-05T04:51:23.116Z,1005.62
2022-08-05T04:52:22.294Z,1005.60
2022-08-05T04:53:22.266Z,1005.63
2022-08-05T04:54:22.232Z,1005.64
2022-08-05T04:56:11.983Z,1005.63
2022-08-05T04:56:34.748Z,1005.64
2022-08-05T04:57:22.404Z,1005.67
2022-08-05T04:58:22.113Z,1005.68
2022-08-05T04:59:24.091Z,1005.76
2022-08-05T05:00:23.663Z,1005.79
2022-08-05T05:02:06.350Z,1005.82
2022-08-05T05:02:36.841Z,1005.85
2022-08-05T05:03:21.965Z,1005.88
2022-08-05T05:04:21.935Z,1005.90
2022-08-05T05:05:28.177Z,1005.90
2022-08-05T05:06:39.867Z,1005.94
2022-08-05T05:07:23.871Z,1005.91
2022-08-05T05:08:29.989Z,1005.91
2022-08-05T05:09:22.067Z,1005.91
2022-08-05T05:10:21.759Z,1005.94
2022-08-05T05:11:21.728Z,1005.94
2022-08-05T05:12:22.245Z,1005.93
2022-08-05T05:13:21.671Z,1005.91
2022-08-05T05:14:28.190Z,1005.96
2022-08-05T05:15:56.370Z,1005.98
2022-08-05T05:16:21.583Z,1005.96
2022-08-05T05:17:24.675Z,1005.92
2022-08-05T05:18:28.370Z,1005.88
2022-08-05T05:19:23.529Z,1005.85
2022-08-05T05:20:21.466Z,1005.81
2022-08-05T05:21:21.433Z,1005.85
2022-08-05T05:22:24.707Z,1005.90
2022-08-05T05:23:21.376Z,1005.93
2022-08-05T05:24:50.836Z,1005.97
2022-08-05T05:26:28.532Z,1006.02
2022-08-05T05:27:25.474Z,1006.04
2022-08-05T05:30:03.528Z,1006.06
2022-08-05T05:30:33.529Z,1006.10
2022-08-05T05:32:21.931Z,1006.08
2022-08-05T05:33:23.452Z,1006.07
2022-08-05T05:35:25.804Z,1006.10
2022-08-05T05:36:28.584Z,1006.08
2022-08-05T05:38:29.657Z,1006.09
2022-08-05T05:39:34.488Z,1006.13
2022-08-05T05:41:40.376Z,1006.11
2022-08-05T05:42:33.499Z,1006.06
2022-08-05T05:44:42.895Z,1006.16
2022-08-05T05:45:37.369Z,1006.19
2022-08-05T05:48:06.266Z,1006.18
2022-08-05T05:48:41.241Z,1006.16
2022-08-05T05:50:45.153Z,1006.15
2022-08-05T05:51:49.870Z,1006.11
2022-08-05T05:53:57.149Z,1006.19
2022-08-05T05:54:50.805Z,1006.24
2022-08-05T05:56:52.910Z,1006.20
2022-08-05T05:57:53.224Z,1006.17
2022-08-05T05:59:56.769Z,1006.21
2022-08-05T06:00:56.735Z,1006.21
2022-08-05T06:03:00.656Z,1006.27
2022-08-05T06:04:03.697Z,1006.29
2022-08-05T06:06:04.534Z,1006.32
2022-08-05T06:07:04.488Z,1006.34
2022-08-05T06:09:08.396Z,1006.25
2022-08-05T06:10:10.382Z,1006.21
2022-08-05T06:12:02.800Z,1006.18
2022-08-05T06:13:01.166Z,1006.17
2022-08-05T06:15:05.133Z,1006.23
2022-08-05T06:16:29.756Z,1006.27
2022-08-05T06:18:09.006Z,1006.33
2022-08-05T06:19:08.961Z,1006.36
2022-08-05T06:21:18.657Z,1006.39
2022-08-05T06:22:12.838Z,1006.36
2022-08-05T06:24:16.757Z,1006.35
2022-08-05T06:25:59.340Z,1006.40
2022-08-05T06:28:11.203Z,1006.42
2022-08-05T06:28:21.244Z,1006.47
2022-08-05T06:30:25.160Z,1006.47
2022-08-05T06:31:32.211Z,1006.44
2022-08-05T06:34:04.610Z,1006.41
2022-08-05T06:34:28.423Z,1006.36
2022-08-05T06:36:56.813Z,1006.33
2022-08-05T06:37:57.055Z,1006.41
2022-08-05T06:39:36.248Z,1006.45
2022-08-05T06:40:36.163Z,1006.44
2022-08-05T06:42:29.013Z,1006.45
2022-08-05T06:43:59.420Z,1006.45
2022-08-05T06:45:44.634Z,1006.47
2022-08-05T06:46:32.836Z,1006.47
2022-08-05T06:48:55.408Z,1006.49
2022-08-05T06:50:01.676Z,1006.50
2022-08-05T06:51:40.798Z,1006.60
2022-08-05T06:52:40.631Z,1006.56
2022-08-05T06:54:33.643Z,1006.59
2022-08-05T06:55:36.529Z,1006.63
2022-08-05T06:58:02.965Z,1006.60
2022-08-05T06:58:37.923Z,1006.63
2022-08-05T07:00:41.416Z,1006.64
2022-08-05T07:01:42.367Z,1006.61
2022-08-05T07:03:45.235Z,1006.66
2022-08-05T07:04:45.200Z,1006.69
2022-08-05T07:06:50.403Z,1006.75
2022-08-05T07:07:49.111Z,1006.75
2022-08-05T07:09:55.445Z,1006.85
2022-08-05T07:10:53.947Z,1006.83
2022-08-05T07:12:56.873Z,1006.87
2022-08-05T07:13:59.589Z,1006.94
2022-08-05T07:16:04.797Z,1007.05
2022-08-05T07:18:00.621Z,1007.00
2022-08-05T07:19:04.611Z,1007.07
2022-08-05T07:20:32.241Z,1007.13
2022-08-05T07:21:59.951Z,1007.14
2022-08-05T07:22:57.367Z,1007.14
2022-08-05T07:25:23.803Z,1007.19
2022-08-05T07:26:01.235Z,1007.20
2022-08-05T07:28:08.297Z,1007.17
2022-08-05T07:29:05.115Z,1007.19
2022-08-05T07:31:09.020Z,1007.16
2022-08-05T07:32:08.987Z,1007.15
2022-08-05T07:34:14.064Z,1007.15
2022-08-05T07:36:04.971Z,1007.18
2022-08-05T07:37:16.765Z,1007.21
2022-08-05T07:38:32.053Z,1007.21
2022-08-05T07:40:31.766Z,1007.30
2022-08-05T07:42:13.396Z,1007.29
2022-08-05T07:43:24.517Z,1007.37
2022-08-05T07:44:24.470Z,1007.33
2022-08-05T07:46:28.384Z,1007.38
2022-08-05T07:47:30.419Z,1007.42
2022-08-05T07:49:32.266Z,1007.46
2022-08-05T07:50:32.544Z,1007.48
2022-08-05T07:51:40.310Z,1007.43
2022-08-05T07:52:32.157Z,1007.46
2022-08-05T07:53:36.922Z,1007.48
2022-08-05T07:54:33.391Z,1007.47
2022-08-05T07:56:04.894Z,1007.48
2022-08-05T07:56:59.970Z,1007.57
2022-08-05T07:57:57.486Z,1007.52
2022-08-05T07:58:57.374Z,1007.53
2022-08-05T07:59:40.001Z,1007.54
2022-08-05T08:00:31.923Z,1007.55
2022-08-05T08:01:31.936Z,1007.57
2022-08-05T08:03:14.569Z,1007.57
2022-08-05T08:03:44.358Z,1007.58
2022-08-05T08:04:37.866Z,1007.66
2022-08-05T08:05:31.768Z,1007.66
2022-08-05T08:06:31.739Z,1007.73
2022-08-05T08:07:39.696Z,1007.74
2022-08-05T08:08:31.680Z,1007.74
2022-08-05T08:09:31.659Z,1007.78
2022-08-05T08:10:31.621Z,1007.79
2022-08-05T08:11:50.286Z,1007.81
2022-08-05T08:12:48.389Z,1007.84
2022-08-05T08:13:31.529Z,1007.84
2022-08-05T08:14:31.497Z,1007.89
2022-08-05T08:16:33.634Z,1007.86
2022-08-05T08:16:50.215Z,1007.90
2022-08-05T08:17:31.407Z,1007.91
2022-08-05T08:18:31.383Z,1007.93
2022-08-05T08:20:22.791Z,1007.93
2022-08-05T08:20:45.358Z,1007.92
2022-08-05T08:21:31.289Z,1007.96
2022-08-05T08:22:32.389Z,1007.93
2022-08-05T08:24:04.003Z,1007.96
2022-08-05T08:24:45.952Z,1007.98
2022-08-05T08:26:00.870Z,1008.00
2022-08-05T08:26:31.135Z,1008.02
2022-08-05T08:27:39.960Z,1008.02
2022-08-05T08:28:36.965Z,1008.02
2022-08-05T08:30:04.102Z,1008.03
2022-08-05T08:30:40.757Z,1008.03
2022-08-05T08:31:32.904Z,1008.03
2022-08-05T08:32:30.970Z,1008.07
2022-08-05T08:33:37.349Z,1008.04
2022-08-05T08:34:33.177Z,1008.06
2022-08-05T08:35:34.700Z,1008.09
2022-08-05T08:36:46.335Z,1008.08
2022-08-05T08:37:30.801Z,1008.09
2022-08-05T08:38:32.295Z,1008.11
2022-08-05T08:39:30.770Z,1008.08
2022-08-05T08:40:30.715Z,1008.09
2022-08-05T08:41:52.393Z,1008.08
2022-08-05T08:42:34.113Z,1008.10
2022-08-05T08:45:18.249Z,1008.09
2022-08-05T08:45:20.171Z,1008.12
2022-08-05T08:45:30.802Z,1008.15
2022-08-05T08:46:30.537Z,1008.15
2022-08-05T08:48:06.111Z,1008.15
2022-08-05T08:49:02.474Z,1008.19
2022-08-05T08:50:23.483Z,1008.19
2022-08-05T08:51:04.068Z,1008.23
2022-08-05T08:52:05.962Z,1008.27
2022-08-05T08:52:30.613Z,1008.27
2022-08-05T08:53:30.322Z,1008.28
2022-08-05T08:54:30.283Z,1008.30
2022-08-05T08:56:02.163Z,1008.33
2022-08-05T08:56:30.233Z,1008.35
2022-08-05T08:57:42.018Z,1008.35
2022-08-05T08:58:43.415Z,1008.37
2022-08-05T08:59:33.672Z,1008.40
2022-08-05T09:00:30.148Z,1008.42
2022-08-05T09:01:30.143Z,1008.42
2022-08-05T09:02:30.038Z,1008.44
2022-08-05T09:03:44.864Z,1008.38
2022-08-05T09:04:30.308Z,1008.44
2022-08-05T09:05:38.719Z,1008.42
2022-08-05T09:06:30.660Z,1008.45
2022-08-05T09:07:39.810Z,1008.42
2022-08-05T09:08:30.070Z,1008.43
2022-08-05T09:09:34.736Z,1008.46
2022-08-05T09:10:29.831Z,1008.48
2022-08-05T09:11:51.025Z,1008.46
2022-08-05T09:12:29.740Z,1008.46
2022-08-05T09:13:31.714Z,1008.53
2022-08-05T09:14:56.854Z,1008.52
2022-08-05T09:15:30.420Z,1008.51
2022-08-05T09:16:29.623Z,1008.60
2022-08-05T09:17:42.397Z,1008.63
2022-08-05T09:18:29.563Z,1008.63
2022-08-05T09:19:36.325Z,1008.63
2022-08-05T09:20:37.290Z,1008.66
2022-08-05T09:22:22.226Z,1008.61
2022-08-05T09:22:31.726Z,1008.64
2022-08-05T09:23:37.221Z,1008.63
2022-08-05T09:24:29.375Z,1008.62
2022-08-05T09:26:00.898Z,1008.62
2022-08-05T09:26:30.182Z,1008.62
2022-08-05T09:28:05.019Z,1008.60
2022-08-05T09:28:32.317Z,1008.60
2022-08-05T09:29:30.994Z,1008.62
2022-08-05T09:30:29.207Z,1008.63
2022-08-05T09:32:41.097Z,1008.64
2022-08-05T09:32:41.867Z,1008.66
2022-08-05T09:33:35.182Z,1008.66
2022-08-05T09:34:29.064Z,1008.68
2022-08-05T09:35:29.352Z,1008.64
2022-08-05T09:36:33.607Z,1008.65
2022-08-05T09:38:16.512Z,1008.74
2022-08-05T09:38:29.568Z,1008.70
2022-08-05T09:39:41.426Z,1008.71
2022-08-05T09:40:28.936Z,1008.74
2022-08-05T09:41:33.149Z,1008.77
2022-08-05T09:42:28.876Z,1008.80
2022-08-05T09:43:41.073Z,1008.78
2022-08-05T09:44:28.756Z,1008.78
2022-08-05T09:46:07.570Z,1008.80
2022-08-05T09:46:28.701Z,1008.76
2022-08-05T09:47:34.924Z,1008.79
2022-08-05T09:48:28.634Z,1008.76
2022-08-05T09:50:00.823Z,1008.76
2022-08-05T09:50:43.577Z,1008.79
2022-08-05T09:51:28.570Z,1008.80
2022-08-05T09:52:28.510Z,1008.83
2022-08-05T09:53:54.369Z,1008.87
2022-08-05T09:54:29.353Z,1008.92
2022-08-05T09:55:56.198Z,1008.93
2022-08-05T09:56:28.389Z,1008.95
2022-08-05T09:57:28.356Z,1009.03
2022-08-05T09:58:29.007Z,1009.01
2022-08-05T09:59:28.293Z,1009.02
2022-08-05T10:00:30.406Z,1009.01
2022-08-05T10:01:32.347Z,1009.05
2022-08-05T10:02:28.244Z,1009.10
2022-08-05T10:03:56.915Z,1009.14
2022-08-05T10:04:29.315Z,1009.10
2022-08-05T10:05:28.243Z,1009.16
2022-08-05T10:06:28.119Z,1009.21
2022-08-05T10:07:50.375Z,1009.18
2022-08-05T10:08:36.660Z,1009.21
2022-08-05T10:09:29.614Z,1009.21
2022-08-05T10:10:28.177Z,1009.22
2022-08-05T10:11:29.669Z,1009.25
2022-08-05T10:12:33.947Z,1009.30
2022-08-05T10:13:44.132Z,1009.31
2022-08-05T10:14:27.837Z,1009.28
2022-08-05T10:15:27.820Z,1009.27
2022-08-05T10:16:27.778Z,1009.24
2022-08-05T10:17:37.430Z,1009.28
2022-08-05T10:18:27.716Z,1009.26
2022-08-05T10:20:03.116Z,1009.30
2022-08-05T10:20:27.668Z,1009.28
2022-08-05T10:21:27.623Z,1009.26
2022-08-05T10:22:30.182Z,1009.31
2022-08-05T10:23:55.392Z,1009.32
2022-08-05T10:24:28.608Z,1009.23
2022-08-05T10:25:27.508Z,1009.31
2022-08-05T10:26:32.304Z,1009.30
2022-08-05T10:28:09.230Z,1009.33
2022-08-05T10:28:29.618Z,1009.36
2022-08-05T10:30:07.002Z,1009.36
2022-08-05T10:32:47.511Z,1009.42
2022-08-05T10:32:51.665Z,1009.43
2022-08-05T10:32:53.997Z,1009.47
2022-08-05T10:33:28.750Z,1009.47
2022-08-05T10:34:31.017Z,1009.48
2022-08-05T10:35:40.388Z,1009.53
2022-08-05T10:36:27.173Z,1009.54
2022-08-05T10:37:27.139Z,1009.60
2022-08-05T10:38:27.112Z,1009.56
2022-08-05T10:40:03.375Z,1009.59
2022-08-05T10:40:27.998Z,1009.65
2022-08-05T10:41:27.022Z,1009.65
2022-08-05T10:42:34.362Z,1009.67
2022-08-05T10:43:30.922Z,1009.67
2022-08-05T10:44:26.931Z,1009.71
2022-08-05T10:45:39.833Z,1009.73
2022-08-05T10:46:26.874Z,1009.71
2022-08-05T10:47:31.278Z,1009.75
2022-08-05T10:48:29.270Z,1009.76
2022-08-05T10:49:33.091Z,1009.80
2022-08-05T10:50:36.292Z,1009.82
2022-08-05T10:51:28.389Z,1009.79
2022-08-05T10:52:26.689Z,1009.77
2022-08-05T10:53:26.663Z,1009.80
2022-08-05T10:54:29.878Z,1009.83
2022-08-05T10:55:26.637Z,1009.82
2022-08-05T10:56:26.572Z,1009.84
2022-08-05T10:57:26.586Z,1009.88
2022-08-05T10:58:35.750Z,1009.87
2022-08-05T11:00:03.612Z,1009.88
2022-08-05T11:00:26.453Z,1009.89
2022-08-05T11:01:28.269Z,1010.00
2022-08-05T11:02:37.717Z,1009.92
2022-08-05T11:03:27.103Z,1009.91
2022-08-05T11:04:26.501Z,1009.94
2022-08-05T11:05:29.227Z,1009.97
2022-08-05T11:06:30.855Z,1010.00
2022-08-05T11:07:33.097Z,1010.03
2022-08-05T11:08:38.174Z,1010.06
2022-08-05T11:09:45.087Z,1010.08
2022-08-05T11:10:27.718Z,1010.11
2022-08-05T11:11:33.054Z,1010.16
2022-08-05T11:12:26.483Z,1010.15
2022-08-05T11:13:26.062Z,1010.21
2022-08-05T11:14:49.392Z,1010.19
2022-08-05T11:16:01.031Z,1010.16
2022-08-05T11:16:33.920Z,1010.19
2022-08-05T11:17:59.100Z,1010.24
2022-08-05T11:18:25.920Z,1010.28
2022-08-05T11:20:11.215Z,1010.21
2022-08-05T11:20:25.859Z,1010.19
2022-08-05T11:21:25.830Z,1010.31
2022-08-05T11:22:25.803Z,1010.24
2022-08-05T11:23:25.774Z,1010.28
2022-08-05T11:24:30.073Z,1010.32
2022-08-05T11:26:04.109Z,1010.35
2022-08-05T11:26:28.526Z,1010.31
2022-08-05T11:27:25.832Z,1010.32
2022-08-05T11:28:25.626Z,1010.32
2022-08-05T11:29:25.594Z,1010.29
2022-08-05T11:30:25.907Z,1010.29
2022-08-05T11:31:54.231Z,1010.27
2022-08-05T11:32:25.508Z,1010.21
2022-08-05T11:33:25.479Z,1010.24
2022-08-05T11:34:26.261Z,1010.19
2022-08-05T11:35:26.184Z,1010.23
2022-08-05T11:36:34.578Z,1010.25
2022-08-05T11:38:28.945Z,1010.22
2022-08-05T11:38:29.693Z,1010.25
2022-08-05T11:39:25.355Z,1010.28
2022-08-05T11:40:25.276Z,1010.24
2022-08-05T11:41:54.641Z,1010.24
2022-08-05T11:42:27.933Z,1010.26
2022-08-05T11:44:06.692Z,1010.31
2022-08-05T11:44:52.711Z,1010.26
2022-08-05T11:46:14.899Z,1010.24
2022-08-05T11:46:32.411Z,1010.23
2022-08-05T11:47:49.741Z,1010.27
2022-08-05T11:48:25.055Z,1010.27
2022-08-05T11:49:25.023Z,1010.32
2022-08-05T11:50:25.235Z,1010.31
2022-08-05T11:51:44.169Z,1010.28
2022-08-05T11:52:29.458Z,1010.30
2022-08-05T11:53:24.910Z,1010.32
2022-08-05T11:54:33.431Z,1010.32
2022-08-05T11:55:31.687Z,1010.33
2022-08-05T11:56:25.398Z,1010.28
2022-08-05T11:57:27.181Z,1010.28
2022-08-05T11:58:24.767Z,1010.31
2022-08-05T11:59:24.739Z,1010.31
2022-08-05T12:00:24.716Z,1010.27
2022-08-05T12:01:24.684Z,1010.30
2022-08-05T12:02:30.199Z,1010.32
2022-08-05T12:03:31.710Z,1010.30
2022-08-05T12:04:24.607Z,1010.32
2022-08-05T12:05:32.169Z,1010.38
2022-08-05T12:06:24.552Z,1010.36
2022-08-05T12:08:10.330Z,1010.38
2022-08-05T12:08:24.492Z,1010.37
2022-08-05T12:09:24.467Z,1010.39
2022-08-05T12:10:24.945Z,1010.41
2022-08-05T12:11:24.417Z,1010.36
2022-08-05T12:12:24.389Z,1010.40
2022-08-05T12:13:49.084Z,1010.44
2022-08-05T12:14:24.342Z,1010.32
2022-08-05T12:15:35.695Z,1010.44
2022-08-05T12:16:25.565Z,1010.47
2022-08-05T12:17:24.377Z,1010.38
2022-08-05T12:18:24.920Z,1010.46
2022-08-05T12:20:26.247Z,1010.47
2022-08-05T12:20:27.527Z,1010.48
2022-08-05T12:21:24.237Z,1010.48
2022-08-05T12:22:24.134Z,1010.53
2022-08-05T12:23:24.105Z,1010.47
2022-08-05T12:24:24.696Z,1010.52
2022-08-05T12:25:28.223Z,1010.49
2022-08-05T12:26:24.075Z,1010.52
2022-08-05T12:27:25.208Z,1010.51
2022-08-05T12:28:23.973Z,1010.48
2022-08-05T12:29:23.952Z,1010.48
2022-08-05T12:30:23.944Z,1010.51
2022-08-05T12:31:33.578Z,1010.52
2022-08-05T12:32:23.870Z,1010.62
2022-08-05T12:33:27.734Z,1010.57
2022-08-05T12:34:25.929Z,1010.53
2022-08-05T12:35:23.794Z,1010.53
2022-08-05T12:36:23.824Z,1010.59
2022-08-05T12:37:23.810Z,1010.51
2022-08-05T12:38:23.721Z,1010.50
2022-08-05T12:39:28.128Z,1010.51
2022-08-05T12:40:28.730Z,1010.58
2022-08-05T12:41:23.647Z,1010.61
2022-08-05T12:42:25.141Z,1010.64
2022-08-05T12:43:23.597Z,1010.54
2022-08-05T12:44:33.585Z,1010.52
2022-08-05T12:45:23.555Z,1010.58
2022-08-05T12:46:29.224Z,1010.62
2022-08-05T12:47:23.722Z,1010.65
2022-08-05T12:48:32.760Z,1010.50
2022-08-05T12:49:25.616Z,1010.61
2022-08-05T12:50:23.440Z,1010.63
2022-08-05T12:52:14.292Z,1010.67
2022-08-05T12:52:28.341Z,1010.66
2022-08-05T12:53:23.357Z,1010.68
2022-08-05T12:54:23.752Z,1010.63
2022-08-05T12:55:26.329Z,1010.71